createdAt,value
2023-02-13T00:07:12.727Z,8.40
2023-02-13T00:17:17.718Z,8.42
2023-02-13T00:27:21.669Z,8.37
2023-02-13T00:37:27.274Z,8.35
2023-02-13T00:47:30.900Z,8.37
2023-02-13T00:57:35.819Z,8.31
2023-02-13T01:07:39.397Z,8.27
2023-02-13T01:17:44.749Z,8.33
2023-02-13T01:27:48.377Z,8.24
2023-02-13T01:37:53.436Z,8.21
2023-02-13T01:48:01.639Z,8.14
2023-02-13T01:58:11.820Z,8.00
2023-02-13T02:08:16.734Z,7.88
2023-02-13T02:18:24.836Z,7.76
2023-02-13T02:29:03.582Z,7.61
2023-02-13T02:39:16.220Z,7.56
2023-02-13T02:49:38.606Z,7.38
2023-02-13T03:00:02.792Z,7.24
2023-02-13T03:10:31.401Z,6.68
2023-02-13T03:21:04.549Z,6.29
2023-02-13T03:31:16.818Z,6.07
2023-02-13T03:41:26.720Z,5.97
2023-02-13T03:51:35.213Z,5.47
2023-02-13T04:01:41.341Z,5.39
2023-02-13T04:11:51.937Z,5.14
2023-02-13T04:22:01.072Z,4.86
2023-02-13T04:32:04.885Z,4.70
2023-02-13T04:42:09.866Z,4.52
2023-02-13T04:52:15.238Z,4.56
2023-02-13T05:02:20.250Z,4.60
2023-02-13T05:12:23.980Z,4.24
2023-02-13T05:22:46.735Z,4.05
2023-02-13T05:32:51.854Z,4.00
2023-02-13T05:42:56.837Z,4.21
2023-02-13T05:53:00.476Z,4.17
2023-02-13T06:03:05.483Z,4.01
2023-02-13T06:13:09.114Z,3.69
2023-02-13T06:23:14.296Z,3.52
2023-02-13T06:33:17.933Z,3.39
2023-02-13T06:43:22.961Z,3.87
2023-02-13T06:53:26.579Z,4.29
2023-02-13T07:03:31.704Z,3.64
2023-02-13T07:13:35.310Z,3.48
2023-02-13T07:23:40.369Z,3.50
2023-02-13T07:33:43.987Z,3.57
2023-02-13T07:43:49.013Z,4.04
2023-02-13T07:53:52.916Z,4.24
2023-02-13T08:03:58.036Z,4.65
2023-02-13T08:14:01.723Z,5.77
2023-02-13T08:24:07.671Z,5.49
2023-02-13T08:34:11.527Z,5.59
2023-02-13T08:44:16.856Z,5.85
2023-02-13T08:54:20.856Z,5.88
2023-02-13T09:04:25.931Z,5.99
2023-02-13T09:14:29.589Z,6.31
2023-02-13T09:24:34.769Z,6.54
2023-02-13T09:34:38.495Z,6.70
2023-02-13T09:44:46.279Z,7.07
2023-02-13T09:54:50.660Z,7.32
2023-02-13T10:05:12.598Z,7.72
2023-02-13T10:15:29.862Z,7.79
2023-02-13T10:25:45.558Z,8.11
2023-02-13T10:35:55.844Z,8.30
2023-02-13T10:46:14.839Z,8.66
2023-02-13T10:56:28.280Z,8.85
2023-02-13T11:06:38.807Z,8.90
2023-02-13T11:16:54.817Z,9.27
2023-02-13T11:27:05.802Z,9.44
2023-02-13T11:37:18.593Z,9.64
2023-02-13T11:47:36.344Z,9.89
2023-02-13T11:57:40.410Z,10.32
2023-02-13T12:07:47.455Z,10.51
2023-02-13T12:18:06.654Z,10.65
2023-02-13T12:28:18.855Z,11.06
2023-02-13T12:38:47.391Z,11.15
2023-02-13T12:49:02.001Z,11.30
2023-02-13T12:59:12.079Z,11.72
2023-02-13T13:09:37.064Z,12.09
2023-02-13T13:19:49.357Z,12.54
2023-02-13T13:29:59.848Z,12.17
2023-02-13T13:40:24.166Z,12.27
2023-02-13T13:50:33.079Z,11.97
2023-02-13T14:00:37.511Z,12.04
2023-02-13T14:11:03.564Z,12.62
2023-02-13T14:21:07.854Z,12.19
2023-02-13T14:31:23.307Z,12.14
2023-02-13T14:41:59.856Z,12.05
2023-02-13T14:52:07.918Z,12.32
2023-02-13T15:02:22.911Z,12.19
2023-02-13T15:12:31.243Z,12.12
2023-02-13T15:22:38.193Z,11.87
2023-02-13T15:32:43.320Z,11.73
2023-02-13T15:42:47.205Z,11.53
2023-02-13T15:52:52.870Z,11.54
2023-02-13T16:02:59.788Z,11.17
2023-02-13T16:13:07.937Z,10.95
2023-02-13T16:23:19.856Z,10.83
2023-02-13T16:33:29.871Z,10.39
2023-02-13T16:43:47.986Z,9.83
2023-02-13T16:53:59.420Z,9.31
2023-02-13T17:04:03.154Z,8.97
2023-02-13T17:14:08.303Z,8.68
2023-02-13T17:24:17.611Z,8.32
2023-02-13T17:34:22.675Z,8.08
2023-02-13T17:44:26.528Z,7.68
2023-02-13T17:54:32.951Z,7.56
2023-02-13T18:04:36.581Z,7.18
2023-02-13T18:14:41.747Z,6.93
2023-02-13T18:24:45.362Z,6.81
2023-02-13T18:34:50.550Z,6.59
2023-02-13T18:44:54.520Z,6.15
2023-02-13T18:54:59.594Z,5.89
2023-02-13T19:05:03.505Z,5.76
2023-02-13T19:15:10.212Z,5.61
2023-02-13T19:25:15.279Z,5.46
2023-02-13T19:35:21.126Z,5.75
2023-02-13T19:45:24.725Z,5.25
2023-02-13T19:55:29.793Z,4.99
2023-02-13T20:05:39.646Z,4.94
2023-02-13T20:15:44.705Z,4.73
2023-02-13T20:25:48.315Z,4.52
2023-02-13T20:35:53.370Z,4.49
2023-02-13T20:45:57.875Z,4.25
2023-02-13T20:56:10.612Z,4.13
2023-02-13T21:06:14.407Z,3.96
2023-02-13T21:16:22.938Z,3.79
2023-02-13T21:26:27.731Z,3.64
2023-02-13T21:36:37.106Z,3.60
2023-02-13T21:46:41.589Z,3.58
2023-02-13T21:56:46.602Z,3.42
2023-02-13T22:06:53.138Z,3.25
2023-02-13T22:16:59.021Z,3.24
2023-02-13T22:27:03.107Z,3.25
2023-02-13T22:37:09.430Z,3.18
2023-02-13T22:47:13.346Z,3.19
2023-02-13T22:57:18.385Z,3.54
2023-02-13T23:07:21.975Z,3.75
2023-02-13T23:17:45.000Z,3.67
2023-02-13T23:27:48.680Z,2.98
2023-02-13T23:37:53.765Z,2.63
2023-02-13T23:47:57.340Z,2.52
2023-02-13T23:58:02.290Z,2.45
